sensor_id;sensor_type;location;lat;lon;timestamp;P1;durP1;ratioP1;P2;durP2;ratioP2
18378;SDS011;27025;51.986;5.984;2023-09-19T00:00:36;4.63;;;2.10;;
18378;SDS011;27025;51.986;5.984;2023-09-19T00:03:02;4.17;;;2.03;;
18378;SDS011;27025;51.986;5.984;2023-09-19T00:05:29;5.47;;;2.47;;
18378;SDS011;27025;51.986;5.984;2023-09-19T00:08:00;3.60;;;2.13;;
18378;SDS011;27025;51.986;5.984;2023-09-19T00:10:29;8.57;;;2.40;;
18378;SDS011;27025;51.986;5.984;2023-09-19T00:13:00;7.83;;;2.30;;
18378;SDS011;27025;51.986;5.984;2023-09-19T00:15:31;7.27;;;2.77;;
18378;SDS011;27025;51.986;5.984;2023-09-19T00:18:01;6.43;;;2.40;;
18378;SDS011;27025;51.986;5.984;2023-09-19T00:20:27;5.20;;;2.67;;
18378;SDS011;27025;51.986;5.984;2023-09-19T00:22:54;9.63;;;3.23;;
18378;SDS011;27025;51.986;5.984;2023-09-19T00:25:20;10.80;;;3.00;;
18378;SDS011;27025;51.986;5.984;2023-09-19T00:27:47;12.03;;;3.33;;
18378;SDS011;27025;51.986;5.984;2023-09-19T00:30:14;14.00;;;3.60;;
18378;SDS011;27025;51.986;5.984;2023-09-19T00:32:45;14.90;;;3.90;;
18378;SDS011;27025;51.986;5.984;2023-09-19T00:35:12;14.73;;;3.47;;
18378;SDS011;27025;51.986;5.984;2023-09-19T00:37:40;15.30;;;4.00;;
18378;SDS011;27025;51.986;5.984;2023-09-19T00:40:06;13.03;;;3.43;;
18378;SDS011;27025;51.986;5.984;2023-09-19T00:42:36;9.10;;;3.50;;
18378;SDS011;27025;51.986;5.984;2023-09-19T00:45:03;7.80;;;3.03;;
18378;SDS011;27025;51.986;5.984;2023-09-19T00:47:29;7.47;;;2.80;;
18378;SDS011;27025;51.986;5.984;2023-09-19T00:49:55;11.67;;;3.20;;
18378;SDS011;27025;51.986;5.984;2023-09-19T00:52:21;12.37;;;3.20;;
18378;SDS011;27025;51.986;5.984;2023-09-19T00:54:48;9.77;;;2.77;;
18378;SDS011;27025;51.986;5.984;2023-09-19T00:57:14;10.00;;;3.10;;
18378;SDS011;27025;51.986;5.984;2023-09-19T00:59:44;10.73;;;3.00;;
18378;SDS011;27025;51.986;5.984;2023-09-19T01:02:10;11.93;;;3.30;;
18378;SDS011;27025;51.986;5.984;2023-09-19T01:04:39;12.13;;;3.33;;
18378;SDS011;27025;51.986;5.984;2023-09-19T01:07:05;10.40;;;3.13;;
18378;SDS011;27025;51.986;5.984;2023-09-19T01:09:33;8.00;;;2.87;;
18378;SDS011;27025;51.986;5.984;2023-09-19T01:12:00;12.43;;;3.43;;
18378;SDS011;27025;51.986;5.984;2023-09-19T01:14:38;13.20;;;4.10;;
18378;SDS011;27025;51.986;5.984;2023-09-19T01:19:54;10.83;;;3.40;;
18378;SDS011;27025;51.986;5.984;2023-09-19T01:22:35;10.23;;;3.63;;
18378;SDS011;27025;51.986;5.984;2023-09-19T01:30:43;15.33;;;4.07;;
18378;SDS011;27025;51.986;5.984;2023-09-19T01:33:09;14.13;;;3.90;;
18378;SDS011;27025;51.986;5.984;2023-09-19T01:35:39;14.00;;;3.80;;
18378;SDS011;27025;51.986;5.984;2023-09-19T01:38:05;14.60;;;3.73;;
18378;SDS011;27025;51.986;5.984;2023-09-19T01:40:36;14.63;;;4.03;;
18378;SDS011;27025;51.986;5.984;2023-09-19T01:43:08;9.90;;;3.70;;
18378;SDS011;27025;51.986;5.984;2023-09-19T01:50:52;14.57;;;4.03;;
18378;SDS011;27025;51.986;5.984;2023-09-19T01:55:50;13.73;;;3.60;;
18378;SDS011;27025;51.986;5.984;2023-09-19T01:58:20;18.20;;;3.93;;
18378;SDS011;27025;51.986;5.984;2023-09-19T02:00:48;11.80;;;3.80;;
18378;SDS011;27025;51.986;5.984;2023-09-19T02:03:17;13.30;;;4.13;;
18378;SDS011;27025;51.986;5.984;2023-09-19T02:05:48;12.80;;;4.23;;
18378;SDS011;27025;51.986;5.984;2023-09-19T02:08:16;13.43;;;3.57;;
18378;SDS011;27025;51.986;5.984;2023-09-19T02:10:43;12.13;;;3.33;;
18378;SDS011;27025;51.986;5.984;2023-09-19T02:13:13;11.67;;;4.17;;
18378;SDS011;27025;51.986;5.984;2023-09-19T02:15:39;17.57;;;3.60;;
18378;SDS011;27025;51.986;5.984;2023-09-19T02:18:06;12.07;;;3.57;;
18378;SDS011;27025;51.986;5.984;2023-09-19T02:20:32;14.20;;;4.00;;
18378;SDS011;27025;51.986;5.984;2023-09-19T02:22:58;12.70;;;3.53;;
18378;SDS011;27025;51.986;5.984;2023-09-19T02:25:24;10.20;;;3.37;;
18378;SDS011;27025;51.986;5.984;2023-09-19T02:27:51;13.10;;;3.80;;
18378;SDS011;27025;51.986;5.984;2023-09-19T02:30:19;13.33;;;3.67;;
18378;SDS011;27025;51.986;5.984;2023-09-19T02:32:48;14.03;;;3.97;;
18378;SDS011;27025;51.986;5.984;2023-09-19T02:35:14;15.85;;;4.07;;
18378;SDS011;27025;51.986;5.984;2023-09-19T02:37:44;14.87;;;3.80;;
18378;SDS011;27025;51.986;5.984;2023-09-19T02:40:10;14.83;;;3.90;;
18378;SDS011;27025;51.986;5.984;2023-09-19T02:42:52;15.23;;;3.70;;
18378;SDS011;27025;51.986;5.984;2023-09-19T02:45:19;14.47;;;3.63;;
18378;SDS011;27025;51.986;5.984;2023-09-19T02:47:45;17.47;;;4.30;;
18378;SDS011;27025;51.986;5.984;2023-09-19T02:50:12;16.97;;;3.77;;
18378;SDS011;27025;51.986;5.984;2023-09-19T02:52:44;13.53;;;3.90;;
18378;SDS011;27025;51.986;5.984;2023-09-19T02:55:12;10.50;;;3.30;;
18378;SDS011;27025;51.986;5.984;2023-09-19T02:57:45;11.33;;;3.90;;
18378;SDS011;27025;51.986;5.984;2023-09-19T03:00:11;15.87;;;3.83;;
18378;SDS011;27025;51.986;5.984;2023-09-19T03:02:37;13.33;;;3.33;;
18378;SDS011;27025;51.986;5.984;2023-09-19T03:05:06;15.97;;;3.53;;
18378;SDS011;27025;51.986;5.984;2023-09-19T03:07:32;16.57;;;4.10;;
18378;SDS011;27025;51.986;5.984;2023-09-19T03:10:01;16.67;;;4.13;;
18378;SDS011;27025;51.986;5.984;2023-09-19T03:12:28;15.13;;;4.30;;
18378;SDS011;27025;51.986;5.984;2023-09-19T03:14:54;12.67;;;3.60;;
18378;SDS011;27025;51.986;5.984;2023-09-19T03:17:20;14.10;;;3.97;;
18378;SDS011;27025;51.986;5.984;2023-09-19T03:19:46;14.27;;;4.00;;
18378;SDS011;27025;51.986;5.984;2023-09-19T03:22:13;14.10;;;4.07;;
18378;SDS011;27025;51.986;5.984;2023-09-19T03:24:39;13.10;;;3.90;;
18378;SDS011;27025;51.986;5.984;2023-09-19T03:27:08;14.67;;;3.67;;
18378;SDS011;27025;51.986;5.984;2023-09-19T03:29:35;13.88;;;4.00;;
18378;SDS011;27025;51.986;5.984;2023-09-19T03:32:01;14.67;;;3.33;;
18378;SDS011;27025;51.986;5.984;2023-09-19T03:34:28;14.77;;;3.57;;
18378;SDS011;27025;51.986;5.984;2023-09-19T03:36:54;11.20;;;3.27;;
18378;SDS011;27025;51.986;5.984;2023-09-19T03:39:20;13.93;;;3.70;;
18378;SDS011;27025;51.986;5.984;2023-09-19T03:41:46;17.20;;;3.70;;
18378;SDS011;27025;51.986;5.984;2023-09-19T03:44:12;13.97;;;3.37;;
18378;SDS011;27025;51.986;5.984;2023-09-19T03:46:40;17.60;;;3.57;;
18378;SDS011;27025;51.986;5.984;2023-09-19T03:49:06;14.03;;;3.77;;
18378;SDS011;27025;51.986;5.984;2023-09-19T03:51:32;12.93;;;3.80;;
18378;SDS011;27025;51.986;5.984;2023-09-19T03:53:59;15.57;;;3.57;;
18378;SDS011;27025;51.986;5.984;2023-09-19T03:56:25;12.83;;;3.50;;
18378;SDS011;27025;51.986;5.984;2023-09-19T03:58:51;13.77;;;3.33;;
18378;SDS011;27025;51.986;5.984;2023-09-19T04:01:17;11.00;;;2.97;;
18378;SDS011;27025;51.986;5.984;2023-09-19T04:03:43;12.43;;;3.40;;
18378;SDS011;27025;51.986;5.984;2023-09-19T04:06:16;16.43;;;3.27;;
18378;SDS011;27025;51.986;5.984;2023-09-19T04:08:42;11.13;;;3.27;;
18378;SDS011;27025;51.986;5.984;2023-09-19T04:11:09;10.40;;;3.53;;
18378;SDS011;27025;51.986;5.984;2023-09-19T04:13:35;15.13;;;3.63;;
18378;SDS011;27025;51.986;5.984;2023-09-19T04:16:02;15.30;;;3.70;;
18378;SDS011;27025;51.986;5.984;2023-09-19T04:18:37;10.40;;;3.23;;
18378;SDS011;27025;51.986;5.984;2023-09-19T04:21:04;9.47;;;2.90;;
18378;SDS011;27025;51.986;5.984;2023-09-19T04:23:31;12.37;;;3.63;;
18378;SDS011;27025;51.986;5.984;2023-09-19T04:25:57;14.35;;;3.72;;
18378;SDS011;27025;51.986;5.984;2023-09-19T04:28:23;8.77;;;3.03;;
18378;SDS011;27025;51.986;5.984;2023-09-19T04:30:50;14.60;;;3.63;;
18378;SDS011;27025;51.986;5.984;2023-09-19T04:33:16;8.77;;;3.00;;
18378;SDS011;27025;51.986;5.984;2023-09-19T04:35:42;12.90;;;3.50;;
18378;SDS011;27025;51.986;5.984;2023-09-19T04:38:08;12.80;;;3.90;;
18378;SDS011;27025;51.986;5.984;2023-09-19T04:40:34;13.17;;;3.60;;
18378;SDS011;27025;51.986;5.984;2023-09-19T04:43:00;9.43;;;3.10;;
18378;SDS011;27025;51.986;5.984;2023-09-19T04:45:27;9.27;;;3.23;;
18378;SDS011;27025;51.986;5.984;2023-09-19T04:47:53;14.15;;;3.67;;
18378;SDS011;27025;51.986;5.984;2023-09-19T04:50:19;14.00;;;3.75;;
18378;SDS011;27025;51.986;5.984;2023-09-19T04:52:52;12.07;;;3.63;;
18378;SDS011;27025;51.986;5.984;2023-09-19T04:55:19;13.53;;;3.30;;
18378;SDS011;27025;51.986;5.984;2023-09-19T04:57:49;12.93;;;3.33;;
18378;SDS011;27025;51.986;5.984;2023-09-19T05:00:16;12.57;;;3.50;;
18378;SDS011;27025;51.986;5.984;2023-09-19T05:02:45;13.03;;;3.37;;
18378;SDS011;27025;51.986;5.984;2023-09-19T05:05:11;9.13;;;3.20;;
18378;SDS011;27025;51.986;5.984;2023-09-19T05:07:44;11.25;;;3.42;;
18378;SDS011;27025;51.986;5.984;2023-09-19T05:10:10;10.97;;;3.20;;
18378;SDS011;27025;51.986;5.984;2023-09-19T05:12:37;11.52;;;3.75;;
18378;SDS011;27025;51.986;5.984;2023-09-19T05:15:03;12.90;;;4.10;;
18378;SDS011;27025;51.986;5.984;2023-09-19T05:17:29;12.80;;;3.25;;
18378;SDS011;27025;51.986;5.984;2023-09-19T05:19:56;15.30;;;3.78;;
18378;SDS011;27025;51.986;5.984;2023-09-19T05:22:30;13.60;;;3.67;;
18378;SDS011;27025;51.986;5.984;2023-09-19T05:24:57;11.03;;;2.97;;
18378;SDS011;27025;51.986;5.984;2023-09-19T05:27:24;10.23;;;3.43;;
18378;SDS011;27025;51.986;5.984;2023-09-19T05:29:50;14.43;;;3.33;;
18378;SDS011;27025;51.986;5.984;2023-09-19T05:32:18;11.23;;;3.20;;
18378;SDS011;27025;51.986;5.984;2023-09-19T05:34:44;11.97;;;3.40;;
18378;SDS011;27025;51.986;5.984;2023-09-19T05:37:12;10.50;;;3.10;;
18378;SDS011;27025;51.986;5.984;2023-09-19T05:39:40;10.63;;;3.20;;
18378;SDS011;27025;51.986;5.984;2023-09-19T05:42:07;14.23;;;3.57;;
18378;SDS011;27025;51.986;5.984;2023-09-19T05:44:33;13.63;;;3.47;;
18378;SDS011;27025;51.986;5.984;2023-09-19T05:46:59;12.53;;;3.17;;
18378;SDS011;27025;51.986;5.984;2023-09-19T05:49:25;11.83;;;3.10;;
18378;SDS011;27025;51.986;5.984;2023-09-19T05:51:52;14.23;;;3.63;;
18378;SDS011;27025;51.986;5.984;2023-09-19T05:54:20;10.47;;;3.30;;
18378;SDS011;27025;51.986;5.984;2023-09-19T05:56:46;9.93;;;2.90;;
18378;SDS011;27025;51.986;5.984;2023-09-19T05:59:12;13.57;;;3.57;;
18378;SDS011;27025;51.986;5.984;2023-09-19T06:01:42;14.67;;;3.37;;
18378;SDS011;27025;51.986;5.984;2023-09-19T06:04:08;13.23;;;3.20;;
18378;SDS011;27025;51.986;5.984;2023-09-19T06:06:34;12.37;;;3.03;;
18378;SDS011;27025;51.986;5.984;2023-09-19T06:09:04;11.33;;;3.23;;
18378;SDS011;27025;51.986;5.984;2023-09-19T06:11:34;12.73;;;3.30;;
18378;SDS011;27025;51.986;5.984;2023-09-19T06:14:03;10.20;;;3.30;;
18378;SDS011;27025;51.986;5.984;2023-09-19T06:16:29;13.97;;;3.43;;
18378;SDS011;27025;51.986;5.984;2023-09-19T06:18:59;15.40;;;3.77;;
18378;SDS011;27025;51.986;5.984;2023-09-19T06:21:26;11.80;;;3.37;;
18378;SDS011;27025;51.986;5.984;2023-09-19T06:23:53;10.33;;;3.10;;
18378;SDS011;27025;51.986;5.984;2023-09-19T06:26:19;16.37;;;3.80;;
18378;SDS011;27025;51.986;5.984;2023-09-19T06:28:45;11.77;;;3.17;;
18378;SDS011;27025;51.986;5.984;2023-09-19T06:31:11;15.47;;;3.20;;
18378;SDS011;27025;51.986;5.984;2023-09-19T06:33:37;14.37;;;3.50;;
18378;SDS011;27025;51.986;5.984;2023-09-19T06:36:04;15.20;;;4.13;;
18378;SDS011;27025;51.986;5.984;2023-09-19T06:38:31;16.30;;;3.47;;
18378;SDS011;27025;51.986;5.984;2023-09-19T06:40:59;13.40;;;3.60;;
18378;SDS011;27025;51.986;5.984;2023-09-19T06:43:34;14.33;;;4.03;;
18378;SDS011;27025;51.986;5.984;2023-09-19T06:46:01;13.57;;;3.70;;
18378;SDS011;27025;51.986;5.984;2023-09-19T06:48:27;13.40;;;3.47;;
18378;SDS011;27025;51.986;5.984;2023-09-19T06:50:54;13.33;;;3.63;;
18378;SDS011;27025;51.986;5.984;2023-09-19T06:53:21;12.53;;;3.27;;
18378;SDS011;27025;51.986;5.984;2023-09-19T06:55:49;13.37;;;3.20;;
18378;SDS011;27025;51.986;5.984;2023-09-19T06:58:15;11.17;;;3.20;;
18378;SDS011;27025;51.986;5.984;2023-09-19T07:00:41;10.60;;;3.30;;
18378;SDS011;27025;51.986;5.984;2023-09-19T07:03:08;14.23;;;3.67;;
18378;SDS011;27025;51.986;5.984;2023-09-19T07:05:36;10.20;;;3.10;;
18378;SDS011;27025;51.986;5.984;2023-09-19T07:08:04;13.93;;;3.70;;
18378;SDS011;27025;51.986;5.984;2023-09-19T07:10:31;14.87;;;3.60;;
18378;SDS011;27025;51.986;5.984;2023-09-19T07:15:26;15.37;;;3.87;;
18378;SDS011;27025;51.986;5.984;2023-09-19T07:17:53;15.80;;;3.70;;
18378;SDS011;27025;51.986;5.984;2023-09-19T07:20:19;13.40;;;3.20;;
18378;SDS011;27025;51.986;5.984;2023-09-19T07:22:45;14.70;;;3.53;;
18378;SDS011;27025;51.986;5.984;2023-09-19T07:25:13;12.10;;;3.50;;
18378;SDS011;27025;51.986;5.984;2023-09-19T07:27:40;16.07;;;3.20;;
18378;SDS011;27025;51.986;5.984;2023-09-19T07:30:07;11.50;;;3.33;;
18378;SDS011;27025;51.986;5.984;2023-09-19T07:32:33;12.60;;;3.60;;
18378;SDS011;27025;51.986;5.984;2023-09-19T07:35:01;17.97;;;4.10;;
18378;SDS011;27025;51.986;5.984;2023-09-19T07:37:28;14.10;;;3.70;;
18378;SDS011;27025;51.986;5.984;2023-09-19T07:39:56;10.40;;;3.20;;
18378;SDS011;27025;51.986;5.984;2023-09-19T07:42:22;10.73;;;3.30;;
18378;SDS011;27025;51.986;5.984;2023-09-19T07:44:48;13.27;;;4.00;;
18378;SDS011;27025;51.986;5.984;2023-09-19T07:47:15;11.83;;;3.77;;
18378;SDS011;27025;51.986;5.984;2023-09-19T07:49:42;7.90;;;2.90;;
18378;SDS011;27025;51.986;5.984;2023-09-19T07:52:11;13.57;;;3.57;;
18378;SDS011;27025;51.986;5.984;2023-09-19T07:54:37;19.37;;;3.80;;
18378;SDS011;27025;51.986;5.984;2023-09-19T07:57:03;12.67;;;3.70;;
18378;SDS011;27025;51.986;5.984;2023-09-19T07:59:29;16.70;;;3.60;;
18378;SDS011;27025;51.986;5.984;2023-09-19T08:01:56;14.07;;;4.10;;
18378;SDS011;27025;51.986;5.984;2023-09-19T08:04:22;13.40;;;3.40;;
18378;SDS011;27025;51.986;5.984;2023-09-19T08:06:51;13.17;;;3.50;;
18378;SDS011;27025;51.986;5.984;2023-09-19T08:09:17;14.70;;;4.07;;
18378;SDS011;27025;51.986;5.984;2023-09-19T08:11:46;13.85;;;4.30;;
18378;SDS011;27025;51.986;5.984;2023-09-19T08:14:13;14.07;;;3.27;;
18378;SDS011;27025;51.986;5.984;2023-09-19T08:16:39;13.93;;;3.90;;
18378;SDS011;27025;51.986;5.984;2023-09-19T08:19:07;13.43;;;4.07;;
18378;SDS011;27025;51.986;5.984;2023-09-19T08:21:33;15.60;;;3.30;;
18378;SDS011;27025;51.986;5.984;2023-09-19T08:24:00;16.40;;;4.37;;
18378;SDS011;27025;51.986;5.984;2023-09-19T08:26:29;12.73;;;3.47;;
18378;SDS011;27025;51.986;5.984;2023-09-19T08:28:55;12.97;;;3.50;;
18378;SDS011;27025;51.986;5.984;2023-09-19T08:31:22;15.63;;;3.90;;
18378;SDS011;27025;51.986;5.984;2023-09-19T08:33:49;11.47;;;3.50;;
18378;SDS011;27025;51.986;5.984;2023-09-19T08:36:16;16.73;;;3.83;;
18378;SDS011;27025;51.986;5.984;2023-09-19T08:38:42;11.93;;;3.27;;
18378;SDS011;27025;51.986;5.984;2023-09-19T08:41:08;11.60;;;3.40;;
18378;SDS011;27025;51.986;5.984;2023-09-19T08:43:34;12.60;;;3.53;;
18378;SDS011;27025;51.986;5.984;2023-09-19T08:46:10;13.03;;;3.30;;
18378;SDS011;27025;51.986;5.984;2023-09-19T08:48:46;16.00;;;3.77;;
18378;SDS011;27025;51.986;5.984;2023-09-19T08:52:06;12.45;;;3.78;;
18378;SDS011;27025;51.986;5.984;2023-09-19T08:54:03;17.77;;;4.03;;
18378;SDS011;27025;51.986;5.984;2023-09-19T08:56:31;16.20;;;4.15;;
18378;SDS011;27025;51.986;5.984;2023-09-19T08:59:02;12.60;;;3.60;;
18378;SDS011;27025;51.986;5.984;2023-09-19T09:01:29;11.10;;;3.33;;
18378;SDS011;27025;51.986;5.984;2023-09-19T09:03:57;15.77;;;4.20;;
18378;SDS011;27025;51.986;5.984;2023-09-19T09:06:24;12.55;;;4.15;;
18378;SDS011;27025;51.986;5.984;2023-09-19T09:08:50;18.23;;;3.63;;
18378;SDS011;27025;51.986;5.984;2023-09-19T09:11:20;15.23;;;4.28;;
18378;SDS011;27025;51.986;5.984;2023-09-19T09:13:47;14.37;;;3.80;;
18378;SDS011;27025;51.986;5.984;2023-09-19T09:16:13;12.30;;;3.53;;
18378;SDS011;27025;51.986;5.984;2023-09-19T09:18:44;9.97;;;3.57;;
18378;SDS011;27025;51.986;5.984;2023-09-19T09:21:10;11.20;;;3.47;;
18378;SDS011;27025;51.986;5.984;2023-09-19T09:23:36;9.77;;;3.40;;
18378;SDS011;27025;51.986;5.984;2023-09-19T09:26:03;9.10;;;3.30;;
18378;SDS011;27025;51.986;5.984;2023-09-19T09:28:31;12.57;;;3.83;;
18378;SDS011;27025;51.986;5.984;2023-09-19T09:30:58;13.35;;;3.97;;
18378;SDS011;27025;51.986;5.984;2023-09-19T09:33:25;9.80;;;3.20;;
18378;SDS011;27025;51.986;5.984;2023-09-19T09:38:47;11.20;;;3.43;;
18378;SDS011;27025;51.986;5.984;2023-09-19T09:41:13;10.57;;;3.23;;
18378;SDS011;27025;51.986;5.984;2023-09-19T09:43:52;13.03;;;3.70;;
18378;SDS011;27025;51.986;5.984;2023-09-19T09:46:18;10.63;;;3.23;;
18378;SDS011;27025;51.986;5.984;2023-09-19T09:51:45;10.23;;;3.17;;
18378;SDS011;27025;51.986;5.984;2023-09-19T09:54:22;9.40;;;3.17;;
18378;SDS011;27025;51.986;5.984;2023-09-19T09:56:52;12.33;;;3.60;;
18378;SDS011;27025;51.986;5.984;2023-09-19T09:59:19;13.27;;;3.95;;
18378;SDS011;27025;51.986;5.984;2023-09-19T10:01:49;12.00;;;3.50;;
18378;SDS011;27025;51.986;5.984;2023-09-19T10:04:28;14.97;;;3.43;;
18378;SDS011;27025;51.986;5.984;2023-09-19T10:07:01;8.97;;;3.20;;
18378;SDS011;27025;51.986;5.984;2023-09-19T10:09:30;11.52;;;3.72;;
18378;SDS011;27025;51.986;5.984;2023-09-19T10:12:10;10.90;;;3.60;;
18378;SDS011;27025;51.986;5.984;2023-09-19T10:14:38;11.57;;;3.13;;
18378;SDS011;27025;51.986;5.984;2023-09-19T10:17:05;13.13;;;3.40;;
18378;SDS011;27025;51.986;5.984;2023-09-19T10:19:39;10.07;;;3.57;;
18378;SDS011;27025;51.986;5.984;2023-09-19T10:22:11;8.73;;;3.10;;
18378;SDS011;27025;51.986;5.984;2023-09-19T10:24:39;10.73;;;3.23;;
18378;SDS011;27025;51.986;5.984;2023-09-19T10:27:06;12.20;;;3.60;;
18378;SDS011;27025;51.986;5.984;2023-09-19T10:29:33;9.10;;;3.20;;
18378;SDS011;27025;51.986;5.984;2023-09-19T10:32:02;14.43;;;3.40;;
18378;SDS011;27025;51.986;5.984;2023-09-19T10:34:31;12.70;;;3.38;;
18378;SDS011;27025;51.986;5.984;2023-09-19T10:36:59;15.60;;;3.43;;
18378;SDS011;27025;51.986;5.984;2023-09-19T10:39:30;10.47;;;3.20;;
18378;SDS011;27025;51.986;5.984;2023-09-19T10:41:57;10.90;;;3.13;;
18378;SDS011;27025;51.986;5.984;2023-09-19T10:44:30;11.70;;;3.20;;
18378;SDS011;27025;51.986;5.984;2023-09-19T10:46:57;10.43;;;3.60;;
18378;SDS011;27025;51.986;5.984;2023-09-19T10:49:24;15.27;;;3.73;;
18378;SDS011;27025;51.986;5.984;2023-09-19T10:51:55;8.60;;;3.20;;
18378;SDS011;27025;51.986;5.984;2023-09-19T10:54:24;10.60;;;3.47;;
18378;SDS011;27025;51.986;5.984;2023-09-19T10:56:53;12.27;;;3.40;;
18378;SDS011;27025;51.986;5.984;2023-09-19T10:59:20;10.37;;;3.00;;
18378;SDS011;27025;51.986;5.984;2023-09-19T11:01:47;16.23;;;3.50;;
18378;SDS011;27025;51.986;5.984;2023-09-19T11:04:31;11.30;;;3.37;;
18378;SDS011;27025;51.986;5.984;2023-09-19T11:07:01;11.03;;;3.10;;
18378;SDS011;27025;51.986;5.984;2023-09-19T11:14:52;9.43;;;2.87;;
18378;SDS011;27025;51.986;5.984;2023-09-19T11:30:34;14.67;;;3.30;;
18378;SDS011;27025;51.986;5.984;2023-09-19T11:33:17;8.77;;;2.70;;
18378;SDS011;27025;51.986;5.984;2023-09-19T11:41:55;7.95;;;2.70;;
18378;SDS011;27025;51.986;5.984;2023-09-19T11:46:28;9.93;;;2.90;;
18378;SDS011;27025;51.986;5.984;2023-09-19T11:49:05;8.87;;;2.60;;
18378;SDS011;27025;51.986;5.984;2023-09-19T11:51:41;8.07;;;2.75;;
18378;SDS011;27025;51.986;5.984;2023-09-19T11:54:10;6.80;;;2.57;;
18378;SDS011;27025;51.986;5.984;2023-09-19T11:56:42;9.00;;;2.63;;
18378;SDS011;27025;51.986;5.984;2023-09-19T11:59:10;7.83;;;2.47;;
18378;SDS011;27025;51.986;5.984;2023-09-19T12:01:36;9.90;;;3.00;;
18378;SDS011;27025;51.986;5.984;2023-09-19T12:04:06;7.43;;;2.70;;
18378;SDS011;27025;51.986;5.984;2023-09-19T12:06:33;9.53;;;2.53;;
18378;SDS011;27025;51.986;5.984;2023-09-19T12:09:01;8.77;;;2.37;;
18378;SDS011;27025;51.986;5.984;2023-09-19T12:11:32;6.40;;;2.27;;
18378;SDS011;27025;51.986;5.984;2023-09-19T12:13:58;9.83;;;2.67;;
18378;SDS011;27025;51.986;5.984;2023-09-19T12:16:26;9.10;;;2.50;;
18378;SDS011;27025;51.986;5.984;2023-09-19T12:18:55;6.17;;;2.30;;
18378;SDS011;27025;51.986;5.984;2023-09-19T12:23:58;7.88;;;2.63;;
18378;SDS011;27025;51.986;5.984;2023-09-19T12:26:26;7.15;;;2.50;;
18378;SDS011;27025;51.986;5.984;2023-09-19T12:28:54;8.60;;;2.57;;
18378;SDS011;27025;51.986;5.984;2023-09-19T12:31:20;8.17;;;2.17;;
18378;SDS011;27025;51.986;5.984;2023-09-19T12:33:52;6.63;;;2.17;;
18378;SDS011;27025;51.986;5.984;2023-09-19T12:36:22;10.93;;;2.60;;
18378;SDS011;27025;51.986;5.984;2023-09-19T12:38:55;7.20;;;2.40;;
18378;SDS011;27025;51.986;5.984;2023-09-19T12:41:21;8.33;;;2.20;;
18378;SDS011;27025;51.986;5.984;2023-09-19T12:43:47;7.37;;;2.10;;
18378;SDS011;27025;51.986;5.984;2023-09-19T12:46:14;6.77;;;1.93;;
18378;SDS011;27025;51.986;5.984;2023-09-19T12:48:40;4.30;;;2.10;;
18378;SDS011;27025;51.986;5.984;2023-09-19T12:51:09;5.40;;;2.00;;
18378;SDS011;27025;51.986;5.984;2023-09-19T12:53:38;7.82;;;2.20;;
18378;SDS011;27025;51.986;5.984;2023-09-19T12:56:07;5.20;;;2.07;;
18378;SDS011;27025;51.986;5.984;2023-09-19T12:58:34;7.70;;;2.27;;
18378;SDS011;27025;51.986;5.984;2023-09-19T13:01:13;6.30;;;1.90;;
18378;SDS011;27025;51.986;5.984;2023-09-19T13:03:39;4.83;;;1.83;;
18378;SDS011;27025;51.986;5.984;2023-09-19T13:06:05;6.80;;;2.00;;
18378;SDS011;27025;51.986;5.984;2023-09-19T13:08:37;8.50;;;2.03;;
18378;SDS011;27025;51.986;5.984;2023-09-19T13:11:04;6.43;;;2.20;;
18378;SDS011;27025;51.986;5.984;2023-09-19T13:14:23;6.70;;;2.17;;
18378;SDS011;27025;51.986;5.984;2023-09-19T13:16:26;5.20;;;1.70;;
18378;SDS011;27025;51.986;5.984;2023-09-19T13:18:55;5.30;;;2.10;;
18378;SDS011;27025;51.986;5.984;2023-09-19T13:21:34;3.37;;;1.70;;
18378;SDS011;27025;51.986;5.984;2023-09-19T13:24:20;6.43;;;2.00;;
18378;SDS011;27025;51.986;5.984;2023-09-19T13:26:47;8.07;;;1.97;;
18378;SDS011;27025;51.986;5.984;2023-09-19T13:29:13;6.53;;;1.77;;
18378;SDS011;27025;51.986;5.984;2023-09-19T13:31:45;9.50;;;2.07;;
18378;SDS011;27025;51.986;5.984;2023-09-19T13:34:11;5.80;;;1.60;;
18378;SDS011;27025;51.986;5.984;2023-09-19T13:36:39;6.07;;;2.10;;
18378;SDS011;27025;51.986;5.984;2023-09-19T13:39:05;6.20;;;1.90;;
18378;SDS011;27025;51.986;5.984;2023-09-19T13:41:33;5.43;;;1.60;;
18378;SDS011;27025;51.986;5.984;2023-09-19T13:44:02;5.63;;;1.70;;
18378;SDS011;27025;51.986;5.984;2023-09-19T13:46:28;4.40;;;1.57;;
18378;SDS011;27025;51.986;5.984;2023-09-19T13:48:56;6.23;;;1.80;;
18378;SDS011;27025;51.986;5.984;2023-09-19T13:51:25;3.37;;;1.50;;
18378;SDS011;27025;51.986;5.984;2023-09-19T13:53:51;4.60;;;1.60;;
18378;SDS011;27025;51.986;5.984;2023-09-19T13:56:19;4.80;;;1.70;;
18378;SDS011;27025;51.986;5.984;2023-09-19T13:58:45;6.00;;;1.60;;
18378;SDS011;27025;51.986;5.984;2023-09-19T14:01:11;7.93;;;1.70;;
18378;SDS011;27025;51.986;5.984;2023-09-19T14:03:41;3.23;;;1.43;;
18378;SDS011;27025;51.986;5.984;2023-09-19T14:06:15;4.53;;;1.60;;
18378;SDS011;27025;51.986;5.984;2023-09-19T14:08:42;4.00;;;1.50;;
18378;SDS011;27025;51.986;5.984;2023-09-19T14:11:09;4.53;;;1.47;;
18378;SDS011;27025;51.986;5.984;2023-09-19T14:13:35;4.17;;;1.70;;
18378;SDS011;27025;51.986;5.984;2023-09-19T14:16:05;2.57;;;1.27;;
18378;SDS011;27025;51.986;5.984;2023-09-19T14:18:31;4.83;;;1.40;;
18378;SDS011;27025;51.986;5.984;2023-09-19T14:20:58;4.20;;;1.67;;
18378;SDS011;27025;51.986;5.984;2023-09-19T14:23:24;5.75;;;1.55;;
18378;SDS011;27025;51.986;5.984;2023-09-19T14:25:51;5.37;;;1.77;;
18378;SDS011;27025;51.986;5.984;2023-09-19T14:28:18;3.57;;;1.30;;
18378;SDS011;27025;51.986;5.984;2023-09-19T14:30:44;4.30;;;1.40;;
18378;SDS011;27025;51.986;5.984;2023-09-19T14:33:11;4.23;;;1.60;;
18378;SDS011;27025;51.986;5.984;2023-09-19T14:35:37;4.07;;;1.70;;
18378;SDS011;27025;51.986;5.984;2023-09-19T14:38:03;4.60;;;1.70;;
18378;SDS011;27025;51.986;5.984;2023-09-19T14:40:29;7.95;;;1.95;;
18378;SDS011;27025;51.986;5.984;2023-09-19T14:42:56;5.17;;;1.63;;
18378;SDS011;27025;51.986;5.984;2023-09-19T14:45:22;6.83;;;1.80;;
18378;SDS011;27025;51.986;5.984;2023-09-19T14:47:50;5.53;;;1.80;;
18378;SDS011;27025;51.986;5.984;2023-09-19T14:50:21;4.63;;;1.80;;
18378;SDS011;27025;51.986;5.984;2023-09-19T14:52:50;5.22;;;2.00;;
18378;SDS011;27025;51.986;5.984;2023-09-19T14:55:16;5.90;;;1.90;;
18378;SDS011;27025;51.986;5.984;2023-09-19T14:57:48;4.93;;;2.00;;
18378;SDS011;27025;51.986;5.984;2023-09-19T15:00:16;8.43;;;1.80;;
18378;SDS011;27025;51.986;5.984;2023-09-19T15:02:43;6.22;;;2.00;;
18378;SDS011;27025;51.986;5.984;2023-09-19T15:05:10;5.37;;;1.77;;
18378;SDS011;27025;51.986;5.984;2023-09-19T15:07:37;7.53;;;1.83;;
18378;SDS011;27025;51.986;5.984;2023-09-19T15:10:04;5.63;;;1.80;;
18378;SDS011;27025;51.986;5.984;2023-09-19T15:12:37;5.80;;;1.90;;
18378;SDS011;27025;51.986;5.984;2023-09-19T15:15:05;3.47;;;1.73;;
18378;SDS011;27025;51.986;5.984;2023-09-19T15:17:35;5.73;;;1.83;;
18378;SDS011;27025;51.986;5.984;2023-09-19T15:20:01;6.33;;;2.43;;
18378;SDS011;27025;51.986;5.984;2023-09-19T15:22:28;6.87;;;1.60;;
18378;SDS011;27025;51.986;5.984;2023-09-19T15:24:54;9.93;;;2.00;;
18378;SDS011;27025;51.986;5.984;2023-09-19T15:27:21;4.13;;;1.90;;
18378;SDS011;27025;51.986;5.984;2023-09-19T15:29:47;5.18;;;2.08;;
18378;SDS011;27025;51.986;5.984;2023-09-19T15:32:13;7.90;;;1.80;;
18378;SDS011;27025;51.986;5.984;2023-09-19T15:34:39;6.90;;;2.20;;
18378;SDS011;27025;51.986;5.984;2023-09-19T15:37:05;6.63;;;1.77;;